createdAt,value
2023-03-18T00:00:11.311Z,5.33
2023-03-18T00:02:39.148Z,6.40
2023-03-18T00:05:07.612Z,6.90
2023-03-18T00:07:36.058Z,5.80
2023-03-18T00:10:04.330Z,5.93
2023-03-18T00:12:32.393Z,5.90
2023-03-18T00:14:59.867Z,6.20
2023-03-18T00:17:26.924Z,7.20
2023-03-18T00:19:53.845Z,6.30
2023-03-18T00:22:20.482Z,7.00
2023-03-18T00:24:48.913Z,6.43
2023-03-18T00:27:15.866Z,5.97
2023-03-18T00:29:42.787Z,6.27
2023-03-18T00:32:09.910Z,5.10
2023-03-18T00:34:36.565Z,6.13
2023-03-18T00:37:03.621Z,4.87
2023-03-18T00:39:32.904Z,6.30
2023-03-18T00:42:01.925Z,5.50
2023-03-18T00:44:28.705Z,5.27
2023-03-18T00:46:55.557Z,5.40
2023-03-18T00:49:22.291Z,6.80
2023-03-18T00:51:49.032Z,6.60
2023-03-18T00:54:18.574Z,5.73
2023-03-18T00:56:45.392Z,5.50
2023-03-18T00:59:13.291Z,6.13
2023-03-18T01:01:40.173Z,6.23
2023-03-18T01:04:07.165Z,6.20
2023-03-18T01:06:36.315Z,5.23
2023-03-18T01:09:06.937Z,6.17
2023-03-18T01:11:33.619Z,5.77
2023-03-18T01:14:00.536Z,5.90
2023-03-18T01:16:27.366Z,5.80
2023-03-18T01:18:54.300Z,6.03
2023-03-18T01:21:21.226Z,6.00
2023-03-18T01:23:47.919Z,7.10
2023-03-18T01:26:14.946Z,6.77
2023-03-18T01:28:42.304Z,7.10
2023-03-18T01:31:09.414Z,6.17
2023-03-18T01:33:36.715Z,7.57
2023-03-18T01:36:04.895Z,7.07
2023-03-18T01:38:32.488Z,7.80
2023-03-18T01:41:00.821Z,7.10
2023-03-18T01:43:34.356Z,6.60
2023-03-18T01:46:22.148Z,7.67
2023-03-18T01:48:52.033Z,6.67
2023-03-18T01:51:20.195Z,8.03
2023-03-18T01:53:49.817Z,7.67
2023-03-18T01:56:18.597Z,6.80
2023-03-18T01:58:49.049Z,7.07
2023-03-18T02:01:40.085Z,7.40
2023-03-18T02:04:10.310Z,7.50
2023-03-18T02:06:38.299Z,6.40
2023-03-18T02:09:06.988Z,7.57
2023-03-18T02:11:36.261Z,7.87
2023-03-18T02:14:04.182Z,7.60
2023-03-18T02:16:36.282Z,8.10
2023-03-18T02:19:15.875Z,9.20
2023-03-18T02:22:09.622Z,7.83
2023-03-18T02:24:56.732Z,7.47
2023-03-18T02:27:26.606Z,6.97
2023-03-18T02:29:57.336Z,7.27
2023-03-18T02:32:28.308Z,8.30
2023-03-18T02:34:57.108Z,6.10
2023-03-18T02:37:23.815Z,6.17
2023-03-18T02:39:51.165Z,6.50
2023-03-18T02:42:29.370Z,6.47
2023-03-18T02:44:56.249Z,6.57
2023-03-18T02:47:26.231Z,6.37
2023-03-18T02:49:53.679Z,5.80
2023-03-18T02:52:20.317Z,7.20
2023-03-18T02:54:46.906Z,6.90
2023-03-18T02:57:13.533Z,6.10
2023-03-18T02:59:40.136Z,7.37
2023-03-18T03:02:07.082Z,8.23
2023-03-18T03:04:33.738Z,7.63
2023-03-18T03:07:01.563Z,7.17
2023-03-18T03:09:28.714Z,7.70
2023-03-18T03:11:55.495Z,8.10
2023-03-18T03:14:22.307Z,7.50
2023-03-18T03:16:49.538Z,8.20
2023-03-18T03:19:16.201Z,8.40
2023-03-18T03:21:43.186Z,8.57
2023-03-18T03:24:09.993Z,7.50
2023-03-18T03:26:36.812Z,8.33
2023-03-18T03:29:05.252Z,9.13
2023-03-18T03:31:32.708Z,8.30
2023-03-18T03:33:59.855Z,8.50
2023-03-18T03:36:26.561Z,8.53
2023-03-18T03:38:53.906Z,8.20
2023-03-18T03:41:20.852Z,8.33
2023-03-18T03:43:47.545Z,8.20
2023-03-18T03:46:14.269Z,7.80
2023-03-18T03:48:41.154Z,6.93
2023-03-18T03:51:07.858Z,6.40
2023-03-18T03:53:36.019Z,6.60
2023-03-18T03:56:03.269Z,6.40
2023-03-18T03:58:29.896Z,7.10
2023-03-18T04:00:56.504Z,5.90
2023-03-18T04:03:23.693Z,7.20
2023-03-18T04:05:50.297Z,7.50
2023-03-18T04:08:17.084Z,7.30
2023-03-18T04:10:43.780Z,7.77
2023-03-18T04:13:11.460Z,8.80
2023-03-18T04:15:38.133Z,6.30
2023-03-18T04:18:07.017Z,5.63
2023-03-18T04:20:37.980Z,5.63
2023-03-18T04:23:04.800Z,7.20
2023-03-18T04:25:31.600Z,7.20
2023-03-18T04:27:58.346Z,6.87
2023-03-18T04:30:26.318Z,5.53
2023-03-18T04:32:54.841Z,5.10
2023-03-18T04:35:23.280Z,6.13
2023-03-18T04:37:50.197Z,5.80
2023-03-18T04:40:17.659Z,5.88
2023-03-18T04:42:47.464Z,4.68
2023-03-18T04:45:15.724Z,5.07
2023-03-18T04:47:42.809Z,3.10
2023-03-18T04:50:13.617Z,3.88
2023-03-18T04:52:41.935Z,3.75
2023-03-18T04:55:09.597Z,3.58
2023-03-18T04:57:38.425Z,4.18
2023-03-18T05:00:09.655Z,5.50
2023-03-18T05:02:39.400Z,8.27
2023-03-18T05:05:06.398Z,5.32
2023-03-18T05:07:33.389Z,4.93
2023-03-18T05:09:59.994Z,11.57
2023-03-18T05:12:27.142Z,10.82
2023-03-18T05:14:53.835Z,9.90
2023-03-18T05:17:20.567Z,7.18
2023-03-18T05:19:55.047Z,5.30
2023-03-18T05:22:22.115Z,4.65
2023-03-18T05:24:49.716Z,4.25
2023-03-18T05:27:18.248Z,7.90
2023-03-18T05:29:46.010Z,4.65
2023-03-18T05:32:14.979Z,6.05
2023-03-18T05:34:42.754Z,6.00
2023-03-18T05:37:11.092Z,5.05
2023-03-18T05:39:38.293Z,9.05
2023-03-18T05:42:06.353Z,5.07
2023-03-18T05:44:33.886Z,5.88
2023-03-18T05:47:01.559Z,5.68
2023-03-18T05:49:28.498Z,7.20
2023-03-18T05:51:55.664Z,6.40
2023-03-18T05:54:22.584Z,7.22
2023-03-18T05:56:52.215Z,4.70
2023-03-18T05:59:36.629Z,5.22
2023-03-18T06:02:03.474Z,8.32
2023-03-18T06:04:31.054Z,6.53
2023-03-18T06:06:58.313Z,8.20
2023-03-18T06:09:25.857Z,6.53
2023-03-18T06:11:52.623Z,7.82
2023-03-18T06:14:19.545Z,7.47
2023-03-18T06:16:46.513Z,6.90
2023-03-18T06:19:14.436Z,7.55
2023-03-18T06:21:41.426Z,6.43
2023-03-18T06:24:09.433Z,7.07
2023-03-18T06:26:36.055Z,6.45
2023-03-18T06:29:03.943Z,5.97
2023-03-18T06:31:31.239Z,7.45
2023-03-18T06:34:00.175Z,9.02
2023-03-18T06:36:27.848Z,8.27
2023-03-18T06:38:55.962Z,8.10
2023-03-18T06:41:22.665Z,10.70
2023-03-18T06:43:50.567Z,7.43
2023-03-18T06:46:17.769Z,6.90
2023-03-18T06:48:44.605Z,6.72
2023-03-18T06:51:11.312Z,7.25
2023-03-18T06:53:38.596Z,8.10
2023-03-18T06:56:06.083Z,7.32
2023-03-18T06:58:32.675Z,7.53
2023-03-18T07:01:00.227Z,6.60
2023-03-18T07:03:28.135Z,5.00
2023-03-18T07:05:55.925Z,6.47
2023-03-18T07:08:22.730Z,5.40
2023-03-18T07:10:53.061Z,5.37
2023-03-18T07:13:19.685Z,6.40
2023-03-18T07:15:46.611Z,5.57
2023-03-18T07:18:14.092Z,5.90
2023-03-18T07:20:41.756Z,4.80
2023-03-18T07:23:08.464Z,4.50
2023-03-18T07:25:36.648Z,4.27
2023-03-18T07:28:04.998Z,3.63
2023-03-18T07:30:31.765Z,3.50
2023-03-18T07:32:58.561Z,3.10
2023-03-18T07:35:25.267Z,3.67
2023-03-18T07:37:52.232Z,2.93
2023-03-18T07:40:18.980Z,2.27
2023-03-18T07:42:45.640Z,3.00
2023-03-18T07:45:12.324Z,3.70
2023-03-18T07:47:39.020Z,3.10
2023-03-18T07:50:06.281Z,2.90
2023-03-18T07:52:33.636Z,2.70
2023-03-18T07:55:00.348Z,2.90
2023-03-18T07:57:27.125Z,3.00
2023-03-18T07:59:53.911Z,2.90
2023-03-18T08:02:29.499Z,3.23
2023-03-18T08:04:56.649Z,3.57
2023-03-18T08:07:24.414Z,2.90
2023-03-18T08:09:51.181Z,3.27
2023-03-18T08:12:19.941Z,3.00
2023-03-18T08:14:48.171Z,2.93
2023-03-18T08:17:15.652Z,3.00
2023-03-18T08:19:42.951Z,3.03
2023-03-18T08:22:10.101Z,3.00
2023-03-18T08:24:38.205Z,3.30
2023-03-18T08:27:05.573Z,2.40
2023-03-18T08:29:32.747Z,3.03
2023-03-18T08:31:59.410Z,3.50
2023-03-18T08:34:26.210Z,2.67
2023-03-18T08:36:53.089Z,3.27
2023-03-18T08:39:21.052Z,2.80
2023-03-18T08:41:48.685Z,2.40
2023-03-18T08:44:15.343Z,2.63
2023-03-18T08:46:41.984Z,2.60
2023-03-18T08:49:10.224Z,2.47
2023-03-18T08:51:36.945Z,2.27
2023-03-18T08:54:04.120Z,2.20
2023-03-18T08:56:30.804Z,2.30
2023-03-18T08:58:57.556Z,2.13
2023-03-18T09:01:24.308Z,2.47
2023-03-18T09:03:51.760Z,3.00
2023-03-18T09:06:18.733Z,2.50
2023-03-18T09:08:45.428Z,2.80
2023-03-18T09:11:13.627Z,2.50
2023-03-18T09:13:40.241Z,2.53
2023-03-18T09:16:08.126Z,2.30
2023-03-18T09:18:35.336Z,2.57
2023-03-18T09:21:03.172Z,2.27
2023-03-18T09:23:29.862Z,1.90
2023-03-18T09:25:57.160Z,2.17
2023-03-18T09:28:24.072Z,2.50
2023-03-18T09:30:51.406Z,2.33
2023-03-18T09:33:18.627Z,2.20
2023-03-18T09:35:45.263Z,2.00
2023-03-18T09:38:16.780Z,2.43
2023-03-18T09:41:09.470Z,2.23
2023-03-18T09:44:13.643Z,2.40
2023-03-18T09:46:59.238Z,3.10
2023-03-18T09:49:51.613Z,2.20
2023-03-18T09:52:23.465Z,2.60
2023-03-18T09:54:54.316Z,2.33
2023-03-18T09:57:28.663Z,2.83
2023-03-18T10:00:18.416Z,2.70
2023-03-18T10:02:55.621Z,2.00
2023-03-18T10:05:35.038Z,2.23
2023-03-18T10:08:14.554Z,2.60
2023-03-18T10:10:45.797Z,2.67
2023-03-18T10:13:29.941Z,2.77
2023-03-18T10:15:59.766Z,2.50
2023-03-18T10:18:39.492Z,2.83
2023-03-18T10:21:12.255Z,2.30
2023-03-18T10:24:08.610Z,3.90
2023-03-18T10:26:50.244Z,2.90
2023-03-18T10:29:38.534Z,1.77
2023-03-18T10:32:53.121Z,3.10
2023-03-18T10:35:40.140Z,2.80
2023-03-18T10:38:23.052Z,2.80
2023-03-18T10:40:49.944Z,1.93
2023-03-18T10:43:23.108Z,2.03
2023-03-18T10:45:57.301Z,2.33
2023-03-18T10:48:38.102Z,2.73
2023-03-18T10:51:24.579Z,2.17
2023-03-18T10:54:13.083Z,2.60
2023-03-18T10:56:40.044Z,2.10
2023-03-18T10:59:20.233Z,2.10
2023-03-18T11:01:51.298Z,2.00
2023-03-18T11:04:23.671Z,2.50
2023-03-18T11:06:58.734Z,2.50
2023-03-18T11:09:39.404Z,2.93
2023-03-18T11:12:19.369Z,1.90
2023-03-18T11:14:50.667Z,1.93
2023-03-18T11:17:31.002Z,3.17
2023-03-18T11:20:08.147Z,2.70
2023-03-18T11:22:37.364Z,2.60
2023-03-18T11:25:06.475Z,2.40
2023-03-18T11:27:45.773Z,2.27
2023-03-18T11:30:40.760Z,2.23
2023-03-18T11:33:10.692Z,2.23
2023-03-18T11:35:57.433Z,1.90
2023-03-18T11:38:32.747Z,2.83
2023-03-18T11:41:14.454Z,2.30
2023-03-18T11:43:56.273Z,2.97
2023-03-18T11:46:25.576Z,2.40
2023-03-18T11:48:52.384Z,2.60
2023-03-18T11:51:27.126Z,2.00
2023-03-18T11:53:53.960Z,2.60
2023-03-18T11:56:51.384Z,1.73
2023-03-18T11:59:27.714Z,4.60
2023-03-18T12:02:22.675Z,2.67
2023-03-18T12:05:10.894Z,2.40
2023-03-18T12:07:52.964Z,2.20
2023-03-18T12:10:24.054Z,2.37
2023-03-18T12:13:29.684Z,2.53
2023-03-18T12:16:03.811Z,2.20
2023-03-18T12:19:08.398Z,2.10
2023-03-18T12:21:49.765Z,2.20
2023-03-18T12:24:24.181Z,2.10
2023-03-18T12:26:59.676Z,1.93
2023-03-18T12:29:59.584Z,2.23
2023-03-18T12:32:52.840Z,1.87
2023-03-18T12:35:28.954Z,2.13
2023-03-18T12:38:39.605Z,2.07
2023-03-18T12:41:18.410Z,2.20
2023-03-18T12:43:57.358Z,2.20
2023-03-18T12:46:35.980Z,1.90
2023-03-18T12:49:27.579Z,2.40
2023-03-18T12:52:08.019Z,2.00
2023-03-18T12:54:53.831Z,1.80
2023-03-18T12:57:38.214Z,1.60
2023-03-18T13:00:28.004Z,1.73
2023-03-18T13:03:18.492Z,1.87
2023-03-18T13:05:49.933Z,2.10
2023-03-18T13:08:28.479Z,2.40
2023-03-18T13:11:12.249Z,2.03
2023-03-18T13:13:43.720Z,1.73
2023-03-18T13:16:13.823Z,2.03
2023-03-18T13:18:48.414Z,1.93
2023-03-18T13:21:20.232Z,2.70
2023-03-18T13:24:32.770Z,2.10
2023-03-18T13:27:17.060Z,1.77
2023-03-18T13:29:52.710Z,2.13
2023-03-18T13:32:22.775Z,2.00
2023-03-18T13:35:14.478Z,1.90
2023-03-18T13:38:06.450Z,2.17
2023-03-18T13:41:25.498Z,2.00
2023-03-18T13:43:53.265Z,1.90
2023-03-18T13:46:23.634Z,1.97
2023-03-18T13:49:02.499Z,1.73
2023-03-18T13:51:29.361Z,2.23
2023-03-18T13:54:05.726Z,2.73
2023-03-18T13:56:40.258Z,1.70
2023-03-18T13:59:28.489Z,1.40
2023-03-18T14:02:00.161Z,1.80
2023-03-18T14:04:31.212Z,1.93
2023-03-18T14:07:17.586Z,1.73
2023-03-18T14:10:02.454Z,2.23
2023-03-18T14:12:34.969Z,2.60
2023-03-18T14:15:12.949Z,2.40
2023-03-18T14:17:47.536Z,1.87
2023-03-18T14:20:20.315Z,2.00
2023-03-18T14:23:17.817Z,2.00
2023-03-18T14:25:48.672Z,2.27
2023-03-18T14:28:21.897Z,3.50
2023-03-18T14:31:32.300Z,2.10
2023-03-18T14:34:03.582Z,1.93
2023-03-18T14:36:56.761Z,2.53
2023-03-18T14:39:42.762Z,2.20
2023-03-18T14:42:34.136Z,2.20
2023-03-18T14:45:06.687Z,2.60
2023-03-18T14:47:48.849Z,1.90
2023-03-18T14:50:21.948Z,2.10
2023-03-18T14:53:12.637Z,1.97
2023-03-18T14:55:40.270Z,2.03
2023-03-18T14:58:11.587Z,1.97
2023-03-18T15:00:38.298Z,2.20
2023-03-18T15:03:14.383Z,2.00
2023-03-18T15:05:43.310Z,2.00
2023-03-18T15:08:17.937Z,2.07
2023-03-18T15:10:49.853Z,2.10
2023-03-18T15:13:21.988Z,1.87
2023-03-18T15:15:54.577Z,2.10
2023-03-18T15:18:26.411Z,1.83
2023-03-18T15:21:04.856Z,2.20
2023-03-18T15:23:31.455Z,1.50
2023-03-18T15:25:58.191Z,1.93
2023-03-18T15:28:27.714Z,1.87
2023-03-18T15:30:58.350Z,2.20
2023-03-18T15:33:38.402Z,3.00
2023-03-18T15:36:15.407Z,2.50
2023-03-18T15:38:50.448Z,2.13
2023-03-18T15:41:21.499Z,2.07
2023-03-18T15:43:51.270Z,2.90
2023-03-18T15:46:32.096Z,1.33
2023-03-18T15:49:02.722Z,2.83
2023-03-18T15:51:33.320Z,2.40
2023-03-18T15:54:17.906Z,2.37
2023-03-18T15:56:48.592Z,1.83
2023-03-18T15:59:22.993Z,2.10
2023-03-18T16:01:49.663Z,2.20
2023-03-18T16:04:17.914Z,2.03
2023-03-18T16:06:45.153Z,2.30
2023-03-18T16:09:22.972Z,2.53
2023-03-18T16:11:57.504Z,2.03
2023-03-18T16:14:31.682Z,2.57
2023-03-18T16:16:58.674Z,3.90
2023-03-18T16:19:28.236Z,1.83
2023-03-18T16:21:59.793Z,1.60
2023-03-18T16:24:27.004Z,2.20
2023-03-18T16:26:56.411Z,2.00
2023-03-18T16:29:31.495Z,2.20
2023-03-18T16:31:59.196Z,2.23
2023-03-18T16:34:26.182Z,2.30
2023-03-18T16:36:53.489Z,2.90
2023-03-18T16:39:34.148Z,2.23
2023-03-18T16:42:03.069Z,1.93
2023-03-18T16:44:29.791Z,2.30
2023-03-18T16:46:57.484Z,3.30
2023-03-18T16:49:31.928Z,1.70
2023-03-18T16:51:59.215Z,2.00
2023-03-18T16:54:32.385Z,2.73
2023-03-18T16:57:02.066Z,2.17
2023-03-18T16:59:33.572Z,2.50
2023-03-18T17:02:00.672Z,1.80
2023-03-18T17:04:29.512Z,2.20
2023-03-18T17:06:58.068Z,1.93
2023-03-18T17:09:26.191Z,2.80
2023-03-18T17:11:57.791Z,1.70
2023-03-18T17:14:32.434Z,2.47
2023-03-18T17:17:01.378Z,2.27
2023-03-18T17:19:28.513Z,2.20
2023-03-18T17:21:55.565Z,2.10
2023-03-18T17:24:22.892Z,1.80
2023-03-18T17:26:51.532Z,2.17
2023-03-18T17:29:24.856Z,1.83
2023-03-18T17:31:53.415Z,2.63
2023-03-18T17:34:20.746Z,2.23
2023-03-18T17:36:47.832Z,1.97
2023-03-18T17:39:14.688Z,2.30
2023-03-18T17:41:42.398Z,2.20
2023-03-18T17:44:30.369Z,2.13
2023-03-18T17:46:57.604Z,2.07
2023-03-18T17:49:26.392Z,2.30
2023-03-18T17:51:56.471Z,1.93
2023-03-18T17:54:27.024Z,2.37
2023-03-18T17:56:53.727Z,2.27
2023-03-18T17:59:21.061Z,2.77
2023-03-18T18:01:49.965Z,2.30
2023-03-18T18:04:19.271Z,2.30
2023-03-18T18:06:49.044Z,2.40
2023-03-18T18:09:16.543Z,2.17
2023-03-18T18:11:46.930Z,2.20
2023-03-18T18:14:24.975Z,2.00
2023-03-18T18:16:59.382Z,2.20
2023-03-18T18:19:26.925Z,2.30
2023-03-18T18:21:53.609Z,3.50
2023-03-18T18:24:26.626Z,4.97
2023-03-18T18:26:53.440Z,2.80
2023-03-18T18:29:28.082Z,4.00
2023-03-18T18:31:54.830Z,2.80
2023-03-18T18:34:21.556Z,3.17
2023-03-18T18:36:49.684Z,3.40
2023-03-18T18:39:16.562Z,3.40
2023-03-18T18:41:44.053Z,3.07
2023-03-18T18:44:11.828Z,3.07
2023-03-18T18:46:39.226Z,3.63
2023-03-18T18:49:06.966Z,2.93
2023-03-18T18:51:33.682Z,2.73
2023-03-18T18:54:00.256Z,2.40
2023-03-18T18:56:35.195Z,3.17
2023-03-18T18:59:05.472Z,2.47
2023-03-18T19:01:32.172Z,2.97
2023-03-18T19:03:58.939Z,2.70
2023-03-18T19:06:32.808Z,2.30
2023-03-18T19:09:01.644Z,2.50
2023-03-18T19:11:29.020Z,2.20
2023-03-18T19:14:17.093Z,3.20
2023-03-18T19:16:44.027Z,2.77
2023-03-18T19:19:16.260Z,3.60
2023-03-18T19:21:43.220Z,4.90
2023-03-18T19:24:37.000Z,2.63
2023-03-18T19:27:06.995Z,2.80
2023-03-18T19:29:33.934Z,2.93
2023-03-18T19:32:03.474Z,2.90
2023-03-18T19:34:32.295Z,2.40
2023-03-18T19:36:59.814Z,2.70
2023-03-18T19:39:28.056Z,3.47
2023-03-18T19:41:54.797Z,3.03
2023-03-18T19:44:24.894Z,2.87
2023-03-18T19:46:56.255Z,3.17
2023-03-18T19:49:33.646Z,2.90
2023-03-18T19:52:00.983Z,2.87
2023-03-18T19:54:33.160Z,2.20
2023-03-18T19:57:29.565Z,2.90
2023-03-18T19:59:58.225Z,2.97
2023-03-18T20:02:29.533Z,3.10
2023-03-18T20:04:58.732Z,3.20
2023-03-18T20:07:28.717Z,3.13
2023-03-18T20:09:56.234Z,3.50
2023-03-18T20:12:28.852Z,4.00
2023-03-18T20:14:55.635Z,4.50
2023-03-18T20:17:34.188Z,3.30
2023-03-18T20:20:01.050Z,3.33
2023-03-18T20:22:32.321Z,3.30
2023-03-18T20:24:59.955Z,3.53
2023-03-18T20:27:26.613Z,3.33
2023-03-18T20:29:54.200Z,3.20
2023-03-18T20:32:20.969Z,3.00
2023-03-18T20:34:48.949Z,2.93
2023-03-18T20:37:25.871Z,3.70
2023-03-18T20:39:53.515Z,4.43
2023-03-18T20:42:20.890Z,4.37
2023-03-18T20:44:47.753Z,4.80
2023-03-18T20:47:14.496Z,5.00
2023-03-18T20:49:44.498Z,4.40
2023-03-18T20:52:28.143Z,4.67
2023-03-18T20:54:56.461Z,5.73
2023-03-18T20:57:24.287Z,5.20
2023-03-18T20:59:51.510Z,4.33
2023-03-18T21:02:31.410Z,3.13
2023-03-18T21:04:59.131Z,3.27
2023-03-18T21:07:26.846Z,6.27
2023-03-18T21:09:53.723Z,3.50
2023-03-18T21:12:21.890Z,3.13
2023-03-18T21:14:49.753Z,3.53
2023-03-18T21:17:27.467Z,3.00
2023-03-18T21:20:11.172Z,3.07
2023-03-18T21:22:46.865Z,3.10
2023-03-18T21:25:18.997Z,2.20
2023-03-18T21:27:46.176Z,2.90
2023-03-18T21:30:13.779Z,3.27
2023-03-18T21:32:41.039Z,2.87
2023-03-18T21:35:22.012Z,2.43
2023-03-18T21:37:49.119Z,2.80
2023-03-18T21:40:18.544Z,3.90
2023-03-18T21:42:46.456Z,2.60
2023-03-18T21:45:15.701Z,2.90
2023-03-18T21:47:42.867Z,2.70
2023-03-18T21:50:23.840Z,3.33
2023-03-18T21:52:51.314Z,3.23
2023-03-18T21:55:18.363Z,2.80
2023-03-18T21:57:47.652Z,2.90
2023-03-18T22:00:20.070Z,3.20
2023-03-18T22:02:47.646Z,2.70
2023-03-18T22:05:18.124Z,2.57
2023-03-18T22:07:44.818Z,3.83
2023-03-18T22:10:16.251Z,3.67
2023-03-18T22:12:43.050Z,3.53
2023-03-18T22:15:24.890Z,3.20
2023-03-18T22:17:52.242Z,4.03
2023-03-18T22:20:19.037Z,4.20
2023-03-18T22:22:47.389Z,4.10
2023-03-18T22:25:30.666Z,4.17
2023-03-18T22:27:58.441Z,4.07
2023-03-18T22:30:27.814Z,3.87
2023-03-18T22:32:56.075Z,4.97
2023-03-18T22:35:25.522Z,4.43
2023-03-18T22:37:52.912Z,5.27
2023-03-18T22:40:25.314Z,5.07
2023-03-18T22:42:54.569Z,5.20
2023-03-18T22:45:25.636Z,5.03
2023-03-18T22:47:54.753Z,5.17
2023-03-18T22:50:22.668Z,4.63
2023-03-18T22:52:58.731Z,4.40
2023-03-18T22:55:26.799Z,5.60
2023-03-18T22:57:53.386Z,5.70
2023-03-18T23:00:25.839Z,5.93
2023-03-18T23:02:53.295Z,4.80
2023-03-18T23:05:21.810Z,4.67
2023-03-18T23:07:48.471Z,5.23
2023-03-18T23:10:15.326Z,5.30
2023-03-18T23:12:42.849Z,4.40
2023-03-18T23:15:18.290Z,4.97
2023-03-18T23:17:45.878Z,5.70
2023-03-18T23:20:14.582Z,4.50
2023-03-18T23:22:41.704Z,5.50
2023-03-18T23:25:13.890Z,5.97
2023-03-18T23:27:40.492Z,4.87
2023-03-18T23:30:08.222Z,5.60
2023-03-18T23:32:35.342Z,5.20
2023-03-18T23:35:02.062Z,6.10
2023-03-18T23:37:28.900Z,4.70
2023-03-18T23:39:55.926Z,6.13
2023-03-18T23:42:22.513Z,5.60
2023-03-18T23:44:49.195Z,6.07
2023-03-18T23:47:16.542Z,6.20
2023-03-18T23:49:43.349Z,6.50
2023-03-18T23:52:13.002Z,5.73
2023-03-18T23:54:40.765Z,6.20
2023-03-18T23:57:09.041Z,6.67
2023-03-18T23:59:36.628Z,6.13
